sensor_id;sensor_type;location;lat;lon;timestamp;pressure;altitude;pressure_sealevel;temperature;humidity
17781;BME280;8498;52.516;13.790;2022-12-13T06:16:53;100660.25;;;-0.01;80.86
17781;BME280;8498;52.516;13.790;2022-12-13T06:22:16;100664.22;;;0.13;79.21
17781;BME280;8498;52.516;13.790;2022-12-13T06:27:39;100665.00;;;0.18;78.19
17781;BME280;8498;52.516;13.790;2022-12-13T06:33:01;100666.66;;;0.20;78.39
17781;BME280;8498;52.516;13.790;2022-12-13T06:38:24;100671.03;;;0.20;77.99
17781;BME280;8498;52.516;13.790;2022-12-13T06:43:52;100670.91;;;0.24;77.90
17781;BME280;8498;52.516;13.790;2022-12-13T06:49:14;100686.38;;;0.32;77.02
17781;BME280;8498;52.516;13.790;2022-12-13T06:54:37;100692.34;;;0.37;76.75
17781;BME280;8498;52.516;13.790;2022-12-13T07:00:00;100693.94;;;0.43;76.17
17781;BME280;8498;52.516;13.790;2022-12-13T07:05:24;100698.97;;;0.50;75.87
17781;BME280;8498;52.516;13.790;2022-12-13T07:10:48;100698.88;;;0.53;75.76
17781;BME280;8498;52.516;13.790;2022-12-13T07:16:11;100709.25;;;0.56;75.57
17781;BME280;8498;52.516;13.790;2022-12-13T07:21:34;100715.16;;;0.63;75.56
17781;BME280;8498;52.516;13.790;2022-12-13T07:26:57;100710.00;;;0.61;75.56
17781;BME280;8498;52.516;13.790;2022-12-13T07:32:20;100727.34;;;0.64;76.00
17781;BME280;8498;52.516;13.790;2022-12-13T07:37:42;100724.53;;;0.71;75.47
17781;BME280;8498;52.516;13.790;2022-12-13T07:43:06;100726.25;;;0.72;75.37
17781;BME280;8498;52.516;13.790;2022-12-13T07:48:29;100721.16;;;0.66;74.95
17781;BME280;8498;52.516;13.790;2022-12-13T07:53:51;100727.34;;;0.64;74.63
17781;BME280;8498;52.516;13.790;2022-12-13T07:59:13;100731.34;;;0.77;75.15
17781;BME280;8498;52.516;13.790;2022-12-13T08:04:36;100726.16;;;0.76;73.74
17781;BME280;8498;52.516;13.790;2022-12-13T08:09:59;100725.19;;;0.80;73.35
17781;BME280;8498;52.516;13.790;2022-12-13T08:15:23;100735.78;;;0.73;72.90
17781;BME280;8498;52.516;13.790;2022-12-13T08:20:46;100742.78;;;0.73;73.11
17781;BME280;8498;52.516;13.790;2022-12-13T08:26:09;100743.22;;;0.89;73.04
17781;BME280;8498;52.516;13.790;2022-12-13T08:31:31;100743.16;;;0.92;73.34
17781;BME280;8498;52.516;13.790;2022-12-13T08:36:55;100749.50;;;1.14;71.64
17781;BME280;8498;52.516;13.790;2022-12-13T08:42:24;100765.28;;;1.11;71.57
17781;BME280;8498;52.516;13.790;2022-12-13T08:47:46;100754.28;;;0.98;71.53
17781;BME280;8498;52.516;13.790;2022-12-13T08:53:08;100770.38;;;1.16;71.46
17781;BME280;8498;52.516;13.790;2022-12-13T08:58:50;100765.31;;;1.09;70.54
17781;BME280;8498;52.516;13.790;2022-12-13T09:04:12;100771.97;;;1.21;71.60
17781;BME280;8498;52.516;13.790;2022-12-13T09:09:34;100778.19;;;1.17;70.61
17781;BME280;8498;52.516;13.790;2022-12-13T09:14:57;100770.97;;;1.25;70.36
17781;BME280;8498;52.516;13.790;2022-12-13T09:20:23;100768.28;;;1.28;70.74
17781;BME280;8498;52.516;13.790;2022-12-13T09:25:55;100777.44;;;1.14;70.58
17781;BME280;8498;52.516;13.790;2022-12-13T09:31:27;100775.78;;;1.09;71.29
17781;BME280;8498;52.516;13.790;2022-12-13T09:36:52;100774.63;;;0.89;71.08
17781;BME280;8498;52.516;13.790;2022-12-13T09:42:27;100781.25;;;1.02;71.50
17781;BME280;8498;52.516;13.790;2022-12-13T09:47:52;100763.91;;;0.98;71.49
17781;BME280;8498;52.516;13.790;2022-12-13T09:53:22;100773.28;;;1.05;71.56
17781;BME280;8498;52.516;13.790;2022-12-13T09:58:50;100773.66;;;0.93;71.57
17781;BME280;8498;52.516;13.790;2022-12-13T10:04:13;100768.94;;;1.04;71.92
17781;BME280;8498;52.516;13.790;2022-12-13T10:09:38;100762.13;;;0.98;71.15
17781;BME280;8498;52.516;13.790;2022-12-13T10:15:01;100769.63;;;1.12;70.96
17781;BME280;8498;52.516;13.790;2022-12-13T10:20:25;100766.19;;;1.10;71.31
17781;BME280;8498;52.516;13.790;2022-12-13T10:25:54;100759.50;;;1.00;71.20
17781;BME280;8498;52.516;13.790;2022-12-13T10:31:24;100765.28;;;1.11;71.52
17781;BME280;8498;52.516;13.790;2022-12-13T10:36:47;100759.34;;;1.04;71.30
17781;BME280;8498;52.516;13.790;2022-12-13T10:42:18;100754.56;;;1.20;70.85
17781;BME280;8498;52.516;13.790;2022-12-13T10:47:44;100753.09;;;1.10;70.72
17781;BME280;8498;52.516;13.790;2022-12-13T10:53:15;100754.97;;;1.05;70.69
17781;BME280;8498;52.516;13.790;2022-12-13T10:58:45;100756.69;;;1.06;70.68
17781;BME280;8498;52.516;13.790;2022-12-13T11:04:37;100758.00;;;1.22;70.22
17781;BME280;8498;52.516;13.790;2022-12-13T11:10:27;100751.78;;;1.25;70.06
17781;BME280;8498;52.516;13.790;2022-12-13T11:15:54;100749.25;;;1.23;69.97
17781;BME280;8498;52.516;13.790;2022-12-13T11:21:28;100747.69;;;1.16;70.03
17781;BME280;8498;52.516;13.790;2022-12-13T11:26:57;100744.94;;;0.90;69.16
17781;BME280;8498;52.516;13.790;2022-12-13T11:38:37;100742.75;;;1.05;70.07
17781;BME280;8498;52.516;13.790;2022-12-13T11:49:38;100743.22;;;1.20;70.04
17781;BME280;8498;52.516;13.790;2022-12-13T11:55:13;100742.63;;;1.10;70.27
17781;BME280;8498;52.516;13.790;2022-12-13T12:00:44;100744.16;;;1.17;69.63
17781;BME280;8498;52.516;13.790;2022-12-13T12:06:21;100744.78;;;1.25;69.77
17781;BME280;8498;52.516;13.790;2022-12-13T12:11:49;100733.53;;;1.23;70.25
17781;BME280;8498;52.516;13.790;2022-12-13T12:17:14;100742.03;;;1.31;70.31
17781;BME280;8498;52.516;13.790;2022-12-13T12:34:02;100750.25;;;1.18;70.02
17781;BME280;8498;52.516;13.790;2022-12-13T12:51:07;100738.53;;;1.31;70.06
17781;BME280;8498;52.516;13.790;2022-12-13T12:56:35;100731.72;;;1.25;70.36
17781;BME280;8498;52.516;13.790;2022-12-13T13:02:15;100738.59;;;1.29;70.19
17781;BME280;8498;52.516;13.790;2022-12-13T13:07:50;100744.91;;;1.22;70.34
17781;BME280;8498;52.516;13.790;2022-12-13T13:24:32;100753.94;;;1.41;69.90
17781;BME280;8498;52.516;13.790;2022-12-13T13:30:13;100752.50;;;1.31;70.67
17781;BME280;8498;52.516;13.790;2022-12-13T13:35:45;100750.69;;;1.33;70.95
17781;BME280;8498;52.516;13.790;2022-12-13T13:47:15;100753.84;;;1.44;71.21
17781;BME280;8498;52.516;13.790;2022-12-13T13:58:59;100760.53;;;1.55;71.11
17781;BME280;8498;52.516;13.790;2022-12-13T14:34:03;100753.47;;;1.27;72.18
17781;BME280;8498;52.516;13.790;2022-12-13T14:39:27;100749.13;;;1.26;72.95
17781;BME280;8498;52.516;13.790;2022-12-13T14:44:52;100756.31;;;1.20;72.63
17781;BME280;8498;52.516;13.790;2022-12-13T14:50:16;100753.19;;;1.07;73.08
17781;BME280;8498;52.516;13.790;2022-12-13T14:56:02;100757.47;;;1.09;73.21
17781;BME280;8498;52.516;13.790;2022-12-13T15:01:36;100754.91;;;1.08;73.44
17781;BME280;8498;52.516;13.790;2022-12-13T15:07:05;100752.19;;;1.11;73.21
17781;BME280;8498;52.516;13.790;2022-12-13T15:12:29;100755.81;;;1.05;73.08
17781;BME280;8498;52.516;13.790;2022-12-13T15:23:37;100756.09;;;0.96;73.37
17781;BME280;8498;52.516;13.790;2022-12-13T15:29:17;100752.75;;;0.91;73.41
17781;BME280;8498;52.516;13.790;2022-12-13T15:34:42;100761.53;;;0.89;73.33
17781;BME280;8498;52.516;13.790;2022-12-13T15:40:07;100765.84;;;0.91;73.58
17781;BME280;8498;52.516;13.790;2022-12-13T15:45:34;100765.69;;;0.96;73.50
17781;BME280;8498;52.516;13.790;2022-12-13T15:51:10;100762.25;;;0.94;73.34
17781;BME280;8498;52.516;13.790;2022-12-13T15:56:35;100761.31;;;0.96;73.62
17781;BME280;8498;52.516;13.790;2022-12-13T16:02:00;100742.19;;;0.94;73.30
17781;BME280;8498;52.516;13.790;2022-12-13T16:07:27;100745.81;;;0.90;73.69
17781;BME280;8498;52.516;13.790;2022-12-13T16:12:54;100746.66;;;0.91;73.68
17781;BME280;8498;52.516;13.790;2022-12-13T16:18:23;100751.16;;;0.86;73.62
17781;BME280;8498;52.516;13.790;2022-12-13T16:23:51;100759.84;;;0.86;74.13
17781;BME280;8498;52.516;13.790;2022-12-13T16:29:16;100746.91;;;0.82;74.71
17781;BME280;8498;52.516;13.790;2022-12-13T16:34:40;100748.88;;;0.73;75.64
17781;BME280;8498;52.516;13.790;2022-12-13T16:40:20;100742.88;;;0.70;75.90
17781;BME280;8498;52.516;13.790;2022-12-13T16:45:50;100748.00;;;0.73;75.90
17781;BME280;8498;52.516;13.790;2022-12-13T16:51:13;100746.31;;;0.72;76.48
17781;BME280;8498;52.516;13.790;2022-12-13T16:56:35;100742.78;;;0.73;76.64
17781;BME280;8498;52.516;13.790;2022-12-13T17:01:58;100742.25;;;0.60;77.88
17781;BME280;8498;52.516;13.790;2022-12-13T17:07:21;100740.44;;;0.62;77.47
17781;BME280;8498;52.516;13.790;2022-12-13T17:12:43;100737.78;;;0.64;77.35
17781;BME280;8498;52.516;13.790;2022-12-13T17:18:06;100731.13;;;0.52;77.96
17781;BME280;8498;52.516;13.790;2022-12-13T17:23:29;100739.31;;;0.40;78.29
17781;BME280;8498;52.516;13.790;2022-12-13T17:28:52;100735.88;;;0.38;77.20
17781;BME280;8498;52.516;13.790;2022-12-13T17:34:15;100746.47;;;0.32;77.42
17781;BME280;8498;52.516;13.790;2022-12-13T17:39:37;100737.81;;;0.30;78.15
17781;BME280;8498;52.516;13.790;2022-12-13T17:45:01;100739.56;;;0.31;78.00
17781;BME280;8498;52.516;13.790;2022-12-13T17:50:24;100730.00;;;0.30;77.28
17781;BME280;8498;52.516;13.790;2022-12-13T17:55:56;100731.19;;;0.17;77.84
17781;BME280;8498;52.516;13.790;2022-12-13T18:01:22;100733.75;;;0.18;77.76
17781;BME280;8498;52.516;13.790;2022-12-13T18:06:45;100729.81;;;0.00;78.86
17781;BME280;8498;52.516;13.790;2022-12-13T18:12:07;100726.75;;;-0.17;79.36
17781;BME280;8498;52.516;13.790;2022-12-13T18:17:30;100727.03;;;-0.29;79.40
17781;BME280;8498;52.516;13.790;2022-12-13T18:23:13;100716.88;;;-0.41;79.65
17781;BME280;8498;52.516;13.790;2022-12-13T18:28:37;100725.09;;;-0.58;80.00
17781;BME280;8498;52.516;13.790;2022-12-13T18:33:59;100720.09;;;-0.67;80.34
17781;BME280;8498;52.516;13.790;2022-12-13T18:39:21;100713.31;;;-0.76;80.17
17781;BME280;8498;52.516;13.790;2022-12-13T18:44:46;100721.44;;;-0.91;80.49
17781;BME280;8498;52.516;13.790;2022-12-13T18:50:16;100724.22;;;-0.98;80.93
17781;BME280;8498;52.516;13.790;2022-12-13T18:55:39;100721.03;;;-1.14;80.53
17781;BME280;8498;52.516;13.790;2022-12-13T19:01:02;100722.19;;;-1.27;80.53
17781;BME280;8498;52.516;13.790;2022-12-13T19:06:26;100720.53;;;-1.31;80.65
17781;BME280;8498;52.516;13.790;2022-12-13T19:11:49;100721.59;;;-1.43;80.64
17781;BME280;8498;52.516;13.790;2022-12-13T19:17:12;100729.63;;;-1.54;81.05
17781;BME280;8498;52.516;13.790;2022-12-13T19:22:35;100718.53;;;-1.65;80.75
17781;BME280;8498;52.516;13.790;2022-12-13T19:27:57;100727.38;;;-1.75;81.06
17781;BME280;8498;52.516;13.790;2022-12-13T19:33:19;100735.34;;;-1.84;81.60
17781;BME280;8498;52.516;13.790;2022-12-13T19:38:42;100731.00;;;-1.83;81.55
17781;BME280;8498;52.516;13.790;2022-12-13T19:44:05;100727.72;;;-1.95;82.02
17781;BME280;8498;52.516;13.790;2022-12-13T19:49:27;100722.69;;;-2.05;81.91
17781;BME280;8498;52.516;13.790;2022-12-13T19:54:49;100725.44;;;-2.14;82.12
17781;BME280;8498;52.516;13.790;2022-12-13T20:00:12;100725.47;;;-2.16;82.60
17781;BME280;8498;52.516;13.790;2022-12-13T20:05:35;100729.19;;;-2.32;82.38
17781;BME280;8498;52.516;13.790;2022-12-13T20:11:04;100726.88;;;-2.50;82.23
17781;BME280;8498;52.516;13.790;2022-12-13T20:16:28;100733.84;;;-2.55;83.15
17781;BME280;8498;52.516;13.790;2022-12-13T20:21:50;100732.22;;;-2.61;82.86
17781;BME280;8498;52.516;13.790;2022-12-13T20:27:18;100724.41;;;-2.63;83.05
17781;BME280;8498;52.516;13.790;2022-12-13T20:32:41;100733.25;;;-2.74;83.04
17781;BME280;8498;52.516;13.790;2022-12-13T20:38:03;100729.03;;;-2.84;82.86
17781;BME280;8498;52.516;13.790;2022-12-13T20:43:27;100725.56;;;-2.82;82.82
17781;BME280;8498;52.516;13.790;2022-12-13T20:48:51;100725.63;;;-2.89;82.68
17781;BME280;8498;52.516;13.790;2022-12-13T20:54:13;100714.56;;;-3.02;82.43
17781;BME280;8498;52.516;13.790;2022-12-13T20:59:36;100707.66;;;-3.05;82.06
17781;BME280;8498;52.516;13.790;2022-12-13T21:04:59;100704.19;;;-3.07;82.89
17781;BME280;8498;52.516;13.790;2022-12-13T21:10:21;100708.63;;;-3.13;81.53
17781;BME280;8498;52.516;13.790;2022-12-13T21:15:44;100703.41;;;-3.13;81.61
17781;BME280;8498;52.516;13.790;2022-12-13T21:21:08;100701.72;;;-3.17;82.13
17781;BME280;8498;52.516;13.790;2022-12-13T21:26:30;100690.56;;;-3.24;81.58
17781;BME280;8498;52.516;13.790;2022-12-13T21:31:57;100682.81;;;-3.28;81.21
17781;BME280;8498;52.516;13.790;2022-12-13T21:37:19;100682.88;;;-3.33;82.12
17781;BME280;8498;52.516;13.790;2022-12-13T21:42:42;100681.13;;;-3.33;82.09
17781;BME280;8498;52.516;13.790;2022-12-13T21:48:04;100681.03;;;-3.25;81.16
17781;BME280;8498;52.516;13.790;2022-12-13T21:53:27;100668.09;;;-3.31;82.05
17781;BME280;8498;52.516;13.790;2022-12-13T21:58:50;100671.63;;;-3.35;81.89
17781;BME280;8498;52.516;13.790;2022-12-13T22:04:32;100668.28;;;-3.43;81.82
17781;BME280;8498;52.516;13.790;2022-12-13T22:09:56;100657.94;;;-3.48;82.07
17781;BME280;8498;52.516;13.790;2022-12-13T22:15:19;100657.16;;;-3.56;81.71
17781;BME280;8498;52.516;13.790;2022-12-13T22:20:41;100664.97;;;-3.57;81.35
17781;BME280;8498;52.516;13.790;2022-12-13T22:26:05;100652.97;;;-3.67;81.46
17781;BME280;8498;52.516;13.790;2022-12-13T22:31:28;100633.06;;;-3.67;81.22
17781;BME280;8498;52.516;13.790;2022-12-13T22:36:51;100637.47;;;-3.75;81.57
17781;BME280;8498;52.516;13.790;2022-12-13T22:42:14;100640.09;;;-3.80;81.46
17781;BME280;8498;52.516;13.790;2022-12-13T22:47:36;100637.59;;;-3.86;81.08
17781;BME280;8498;52.516;13.790;2022-12-13T22:52:58;100623.84;;;-3.97;81.58
17781;BME280;8498;52.516;13.790;2022-12-13T22:58:22;100624.75;;;-4.01;81.17
17781;BME280;8498;52.516;13.790;2022-12-13T23:03:49;100610.91;;;-4.01;81.30
17781;BME280;8498;52.516;13.790;2022-12-13T23:09:12;100607.41;;;-3.96;81.72
17781;BME280;8498;52.516;13.790;2022-12-13T23:14:39;100606.47;;;-3.89;81.22
17781;BME280;8498;52.516;13.790;2022-12-13T23:20:01;100597.06;;;-4.00;81.11
17781;BME280;8498;52.516;13.790;2022-12-13T23:25:25;100584.94;;;-3.98;81.82
17781;BME280;8498;52.516;13.790;2022-12-13T23:30:48;100582.16;;;-3.82;82.52
17781;BME280;8498;52.516;13.790;2022-12-13T23:36:12;100575.19;;;-3.77;82.16
17781;BME280;8498;52.516;13.790;2022-12-13T23:41:35;100563.88;;;-3.71;82.59
17781;BME280;8498;52.516;13.790;2022-12-13T23:46:57;100565.47;;;-3.61;82.91
17781;BME280;8498;52.516;13.790;2022-12-13T23:52:20;100557.75;;;-3.65;82.25
17781;BME280;8498;52.516;13.790;2022-12-13T23:57:42;100559.50;;;-3.67;83.05
